createdAt,value
2022-10-26T00:01:16.471Z,10.90
2022-10-26T00:03:45.205Z,10.90
2022-10-26T00:06:15.248Z,10.90
2022-10-26T00:08:42.987Z,11.00
2022-10-26T00:11:11.748Z,11.00
2022-10-26T00:13:40.256Z,11.00
2022-10-26T00:16:12.171Z,11.00
2022-10-26T00:18:40.478Z,11.00
2022-10-26T00:21:10.377Z,11.00
2022-10-26T00:23:38.399Z,11.10
2022-10-26T00:26:06.587Z,11.00
2022-10-26T00:28:34.398Z,11.10
2022-10-26T00:31:08.227Z,11.10
2022-10-26T00:33:36.023Z,11.10
2022-10-26T00:36:04.237Z,11.10
2022-10-26T00:38:31.939Z,11.10
2022-10-26T00:40:59.349Z,11.10
2022-10-26T00:43:29.676Z,11.10
2022-10-26T00:45:59.732Z,11.10
2022-10-26T00:48:30.735Z,11.10
2022-10-26T00:51:00.903Z,11.10
2022-10-26T00:53:29.451Z,11.10
2022-10-26T00:55:57.197Z,11.10
2022-10-26T00:58:25.990Z,11.00
2022-10-26T01:00:53.537Z,11.00
2022-10-26T01:03:25.098Z,11.10
2022-10-26T01:05:57.492Z,11.00
2022-10-26T01:08:28.186Z,11.10
2022-10-26T01:10:58.023Z,11.10
2022-10-26T01:13:28.460Z,11.00
2022-10-26T01:16:10.774Z,11.00
2022-10-26T01:18:54.731Z,11.00
2022-10-26T01:21:34.030Z,11.00
2022-10-26T01:24:26.764Z,11.00
2022-10-26T01:27:07.055Z,11.00
2022-10-26T01:30:08.202Z,11.00
2022-10-26T01:32:55.435Z,11.00
2022-10-26T01:36:03.371Z,11.00
2022-10-26T01:39:02.911Z,11.00
2022-10-26T01:41:39.367Z,11.10
2022-10-26T01:44:12.924Z,11.10
2022-10-26T01:46:44.408Z,11.20
2022-10-26T01:49:13.668Z,11.20
2022-10-26T01:51:42.989Z,11.30
2022-10-26T01:54:10.771Z,11.30
2022-10-26T01:56:44.308Z,11.30
2022-10-26T01:59:14.713Z,11.40
2022-10-26T02:01:51.995Z,11.40
2022-10-26T02:04:37.333Z,11.40
2022-10-26T02:07:24.786Z,11.50
2022-10-26T02:10:18.107Z,11.50
2022-10-26T02:13:22.922Z,11.60
2022-10-26T02:16:11.072Z,11.60
2022-10-26T02:19:05.645Z,11.60
2022-10-26T02:21:43.145Z,11.60
2022-10-26T02:24:12.618Z,11.60
2022-10-26T02:26:41.991Z,11.70
2022-10-26T02:29:13.375Z,11.70
2022-10-26T02:31:42.625Z,11.70
2022-10-26T02:34:13.203Z,11.70
2022-10-26T02:36:44.968Z,11.70
2022-10-26T02:39:14.552Z,11.80
2022-10-26T02:41:44.131Z,11.80
2022-10-26T02:44:14.412Z,11.90
2022-10-26T02:46:43.394Z,12.00
2022-10-26T02:49:11.539Z,12.00
2022-10-26T02:51:52.093Z,12.10
2022-10-26T02:54:25.224Z,12.20
2022-10-26T02:56:58.024Z,12.20
2022-10-26T02:59:28.771Z,12.30
2022-10-26T03:01:56.156Z,12.40
2022-10-26T03:04:32.430Z,12.40
2022-10-26T03:06:59.672Z,12.40
2022-10-26T03:09:27.759Z,12.50
2022-10-26T03:11:54.948Z,12.50
2022-10-26T03:14:22.415Z,12.60
2022-10-26T03:19:22.180Z,12.60
2022-10-26T03:21:49.342Z,12.60
2022-10-26T03:24:16.513Z,12.60
2022-10-26T03:26:43.736Z,12.70
2022-10-26T03:29:10.895Z,12.70
2022-10-26T03:31:38.072Z,12.70
2022-10-26T03:34:05.290Z,12.80
2022-10-26T03:36:33.007Z,12.80
2022-10-26T03:39:00.353Z,12.90
2022-10-26T03:41:27.539Z,12.90
2022-10-26T03:43:54.912Z,12.90
2022-10-26T03:46:22.656Z,13.00
2022-10-26T03:48:49.881Z,13.00
2022-10-26T03:51:17.276Z,13.10
2022-10-26T03:53:44.498Z,13.10
2022-10-26T03:56:11.707Z,13.10
2022-10-26T03:58:38.885Z,13.20
2022-10-26T04:01:06.111Z,13.20
2022-10-26T04:03:33.539Z,13.20
2022-10-26T04:06:02.151Z,13.20
2022-10-26T04:08:29.853Z,13.20
2022-10-26T04:11:00.995Z,13.30
2022-10-26T04:13:33.484Z,13.30
2022-10-26T04:16:00.874Z,13.30
2022-10-26T04:18:28.279Z,13.30
2022-10-26T04:20:55.474Z,13.30
2022-10-26T04:23:23.010Z,13.30
2022-10-26T04:25:50.247Z,13.40
2022-10-26T04:28:17.720Z,13.40
2022-10-26T04:30:47.031Z,13.40
2022-10-26T04:33:14.587Z,13.40
2022-10-26T04:35:42.999Z,13.40
2022-10-26T04:38:10.600Z,13.40
2022-10-26T04:40:38.319Z,13.40
2022-10-26T04:43:06.275Z,13.50
2022-10-26T04:45:34.243Z,13.50
2022-10-26T04:48:04.947Z,13.50
2022-10-26T04:50:32.976Z,13.50
2022-10-26T04:53:00.570Z,13.50
2022-10-26T04:55:28.436Z,13.60
2022-10-26T04:57:58.648Z,13.60
2022-10-26T05:00:32.493Z,13.60
2022-10-26T05:03:01.482Z,13.60
2022-10-26T05:05:31.752Z,13.60
2022-10-26T05:07:59.479Z,13.60
2022-10-26T05:10:28.318Z,13.60
2022-10-26T05:12:57.843Z,13.60
2022-10-26T05:15:26.683Z,13.60
2022-10-26T05:17:59.747Z,13.60
2022-10-26T05:20:30.842Z,13.60
2022-10-26T05:23:00.953Z,13.60
2022-10-26T05:25:31.769Z,13.60
2022-10-26T05:28:00.185Z,13.60
2022-10-26T05:30:28.611Z,13.70
2022-10-26T05:33:00.489Z,13.70
2022-10-26T05:35:28.094Z,13.70
2022-10-26T05:37:55.551Z,13.70
2022-10-26T05:40:23.826Z,13.70
2022-10-26T05:42:52.456Z,13.70
2022-10-26T05:45:21.315Z,13.70
2022-10-26T05:47:48.957Z,13.70
2022-10-26T05:50:16.928Z,13.70
2022-10-26T05:52:46.909Z,13.70
2022-10-26T05:55:16.550Z,13.70
2022-10-26T05:57:44.840Z,13.70
2022-10-26T06:00:18.780Z,13.70
2022-10-26T06:03:20.761Z,13.70
2022-10-26T06:05:56.261Z,13.70
2022-10-26T06:08:25.980Z,13.70
2022-10-26T06:10:55.783Z,13.70
2022-10-26T06:13:23.428Z,13.70
2022-10-26T06:16:21.867Z,13.70
2022-10-26T06:19:10.866Z,13.70
2022-10-26T06:21:56.851Z,13.70
2022-10-26T06:24:44.350Z,13.80
2022-10-26T06:27:42.835Z,13.80
2022-10-26T06:30:12.006Z,13.80
2022-10-26T06:32:43.447Z,13.90
2022-10-26T06:35:37.468Z,13.90
2022-10-26T06:38:09.768Z,13.90
2022-10-26T06:40:39.857Z,13.90
2022-10-26T06:43:20.385Z,14.00
2022-10-26T06:45:51.457Z,14.00
2022-10-26T06:48:25.878Z,14.00
2022-10-26T06:50:54.080Z,14.00
2022-10-26T06:53:35.834Z,14.00
2022-10-26T06:56:03.776Z,14.00
2022-10-26T06:58:35.067Z,14.10
2022-10-26T07:01:03.596Z,14.10
2022-10-26T07:03:31.473Z,14.10
2022-10-26T07:05:58.799Z,14.20
2022-10-26T07:08:27.235Z,14.20
2022-10-26T07:10:54.720Z,14.30
2022-10-26T07:13:22.389Z,14.30
2022-10-26T07:15:49.615Z,14.30
2022-10-26T07:18:17.031Z,14.40
2022-10-26T07:20:44.480Z,14.40
2022-10-26T07:23:11.691Z,14.50
2022-10-26T07:25:40.635Z,14.50
2022-10-26T07:28:10.557Z,14.50
2022-10-26T07:30:39.643Z,14.60
2022-10-26T07:33:12.819Z,14.60
2022-10-26T07:35:40.703Z,14.70
2022-10-26T07:38:08.487Z,14.60
2022-10-26T07:40:38.031Z,14.80
2022-10-26T07:43:05.425Z,14.70
2022-10-26T07:45:33.221Z,14.70
2022-10-26T07:48:00.683Z,14.80
2022-10-26T07:50:28.765Z,14.80
2022-10-26T07:52:59.717Z,14.80
2022-10-26T07:55:28.158Z,14.90
2022-10-26T07:57:56.224Z,14.90
2022-10-26T08:00:24.328Z,15.00
2022-10-26T08:02:52.998Z,15.00
2022-10-26T08:05:20.770Z,15.10
2022-10-26T08:07:48.695Z,15.10
2022-10-26T08:10:16.553Z,15.10
2022-10-26T08:12:44.392Z,15.20
2022-10-26T08:15:12.009Z,15.20
2022-10-26T08:17:39.415Z,15.20
2022-10-26T08:20:07.619Z,15.20
2022-10-26T08:22:35.149Z,15.30
2022-10-26T08:25:02.591Z,15.30
2022-10-26T08:27:30.040Z,15.30
2022-10-26T08:29:57.607Z,15.40
2022-10-26T08:32:25.310Z,15.40
2022-10-26T08:34:52.853Z,15.40
2022-10-26T08:37:20.397Z,15.40
2022-10-26T08:39:49.265Z,15.40
2022-10-26T08:42:28.215Z,15.50
2022-10-26T08:45:01.375Z,15.50
2022-10-26T08:47:44.894Z,15.50
2022-10-26T08:50:27.733Z,15.50
2022-10-26T08:53:09.617Z,15.60
2022-10-26T08:56:04.541Z,15.60
2022-10-26T08:58:48.966Z,15.60
2022-10-26T09:01:18.373Z,15.70
2022-10-26T09:03:49.541Z,15.70
2022-10-26T09:06:32.488Z,15.70
2022-10-26T09:09:06.837Z,15.70
2022-10-26T09:11:55.648Z,15.70
2022-10-26T09:14:38.419Z,15.70
2022-10-26T09:17:30.821Z,15.80
2022-10-26T09:20:16.552Z,15.80
2022-10-26T09:22:57.530Z,15.80
2022-10-26T09:25:31.780Z,15.90
2022-10-26T09:28:02.132Z,15.90
2022-10-26T09:30:31.511Z,15.90
2022-10-26T09:33:02.697Z,16.00
2022-10-26T09:35:42.303Z,16.20
2022-10-26T09:38:16.719Z,16.30
2022-10-26T09:41:08.932Z,16.40
2022-10-26T09:43:45.142Z,16.60
2022-10-26T09:46:25.268Z,16.70
2022-10-26T09:48:57.678Z,16.90
2022-10-26T09:51:27.103Z,17.10
2022-10-26T09:53:57.722Z,17.20
2022-10-26T09:56:28.404Z,17.40
2022-10-26T09:59:02.262Z,17.50
2022-10-26T10:01:35.611Z,17.70
2022-10-26T10:04:20.371Z,17.90
2022-10-26T10:06:50.797Z,18.10
2022-10-26T10:09:25.547Z,18.20
2022-10-26T10:12:02.676Z,18.30
2022-10-26T10:14:40.038Z,18.50
2022-10-26T10:19:49.962Z,18.70
2022-10-26T10:22:23.924Z,18.80
2022-10-26T10:25:02.477Z,18.80
2022-10-26T10:27:31.263Z,18.90
2022-10-26T10:30:19.792Z,18.90
2022-10-26T10:33:05.142Z,19.00
2022-10-26T10:35:38.024Z,19.10
2022-10-26T10:38:22.133Z,19.20
2022-10-26T10:40:56.699Z,19.30
2022-10-26T10:43:27.706Z,19.30
2022-10-26T10:45:59.739Z,19.40
2022-10-26T10:48:29.418Z,19.40
2022-10-26T10:51:03.817Z,19.50
2022-10-26T10:54:00.340Z,19.50
2022-10-26T10:56:52.026Z,19.50
2022-10-26T10:59:38.691Z,19.60
2022-10-26T11:02:06.185Z,19.60
2022-10-26T11:04:47.294Z,19.60
2022-10-26T11:07:18.746Z,19.60
2022-10-26T11:09:51.715Z,19.60
2022-10-26T11:12:37.466Z,19.50
2022-10-26T11:15:16.520Z,19.50
2022-10-26T11:18:22.760Z,19.40
2022-10-26T11:21:03.382Z,19.40
2022-10-26T11:24:07.034Z,19.30
2022-10-26T11:26:43.681Z,19.40
2022-10-26T11:29:52.171Z,19.30
2022-10-26T11:32:22.328Z,19.40
2022-10-26T11:35:27.780Z,19.40
2022-10-26T11:38:38.864Z,19.50
2022-10-26T11:41:19.097Z,19.60
2022-10-26T11:43:53.685Z,19.60
2022-10-26T11:46:28.140Z,19.60
2022-10-26T11:49:19.427Z,19.70
2022-10-26T11:51:56.738Z,19.70
2022-10-26T11:55:08.145Z,19.70
2022-10-26T11:57:37.539Z,19.80
2022-10-26T12:00:17.262Z,19.70
2022-10-26T12:02:57.997Z,19.80
2022-10-26T12:05:48.668Z,19.80
2022-10-26T12:08:31.437Z,19.90
2022-10-26T12:11:10.811Z,19.90
2022-10-26T12:13:49.842Z,20.00
2022-10-26T12:16:44.761Z,20.00
2022-10-26T12:19:49.380Z,20.10
2022-10-26T12:22:19.326Z,20.20
2022-10-26T12:25:15.105Z,20.30
2022-10-26T12:27:44.392Z,20.40
2022-10-26T12:30:18.561Z,20.40
2022-10-26T12:32:49.431Z,20.40
2022-10-26T12:35:41.219Z,20.40
2022-10-26T12:38:24.176Z,20.50
2022-10-26T12:41:24.068Z,20.50
2022-10-26T12:44:02.731Z,20.60
2022-10-26T12:46:37.617Z,20.60
2022-10-26T12:49:47.471Z,20.70
2022-10-26T12:52:31.486Z,20.70
2022-10-26T12:55:38.838Z,20.80
2022-10-26T12:58:27.704Z,20.90
2022-10-26T13:01:18.326Z,20.90
2022-10-26T13:04:07.034Z,20.90
2022-10-26T13:06:41.276Z,21.00
2022-10-26T13:09:21.068Z,21.10
2022-10-26T13:11:54.756Z,21.10
2022-10-26T13:14:33.895Z,21.10
2022-10-26T13:17:06.106Z,21.10
2022-10-26T13:19:39.971Z,21.20
2022-10-26T13:22:25.769Z,21.20
2022-10-26T13:25:05.482Z,21.20
2022-10-26T13:27:34.562Z,21.20
2022-10-26T13:30:36.006Z,21.20
2022-10-26T13:33:08.119Z,21.10
2022-10-26T13:35:41.898Z,21.10
2022-10-26T13:38:18.715Z,21.10
2022-10-26T13:40:51.473Z,21.10
2022-10-26T13:43:25.188Z,21.10
2022-10-26T13:46:02.496Z,21.10
2022-10-26T13:48:39.807Z,21.00
2022-10-26T13:51:23.600Z,21.00
2022-10-26T13:54:00.327Z,21.00
2022-10-26T13:56:42.681Z,21.00
2022-10-26T13:59:14.001Z,21.00
2022-10-26T14:01:42.000Z,20.90
2022-10-26T14:04:36.793Z,20.90
2022-10-26T14:07:05.880Z,20.90
2022-10-26T14:09:36.196Z,20.90
2022-10-26T14:12:04.066Z,20.90
2022-10-26T14:14:37.804Z,20.90
2022-10-26T14:17:06.071Z,20.90
2022-10-26T14:19:37.170Z,20.90
2022-10-26T14:22:05.577Z,20.90
2022-10-26T14:24:46.887Z,20.90
2022-10-26T14:27:17.654Z,20.80
2022-10-26T14:29:49.853Z,20.80
2022-10-26T14:32:24.603Z,20.80
2022-10-26T14:34:52.516Z,20.80
2022-10-26T14:37:38.298Z,20.70
2022-10-26T14:40:07.865Z,20.70
2022-10-26T14:42:41.159Z,20.70
2022-10-26T14:45:47.192Z,20.70
2022-10-26T14:48:28.406Z,20.70
2022-10-26T14:51:10.085Z,20.70
2022-10-26T14:53:47.397Z,20.80
2022-10-26T14:56:26.521Z,20.80
2022-10-26T14:58:55.116Z,20.80
2022-10-26T15:01:23.126Z,20.80
2022-10-26T15:03:58.178Z,20.80
2022-10-26T15:06:41.793Z,20.80
2022-10-26T15:09:30.712Z,20.80
2022-10-26T15:12:00.636Z,20.70
2022-10-26T15:14:33.927Z,20.70
2022-10-26T15:17:04.990Z,20.60
2022-10-26T15:19:36.915Z,20.50
2022-10-26T15:22:04.688Z,20.50
2022-10-26T15:24:38.486Z,20.40
2022-10-26T15:27:19.153Z,20.30
2022-10-26T15:29:51.110Z,20.20
2022-10-26T15:32:40.643Z,20.20
2022-10-26T15:35:25.897Z,20.10
2022-10-26T15:38:01.691Z,20.00
2022-10-26T15:40:31.112Z,19.90
2022-10-26T15:43:00.299Z,19.90
2022-10-26T15:45:34.971Z,19.80
2022-10-26T15:48:25.019Z,19.70
2022-10-26T15:50:52.803Z,19.60
2022-10-26T15:53:28.472Z,19.50
2022-10-26T15:56:00.437Z,19.40
2022-10-26T15:58:31.362Z,19.40
2022-10-26T16:00:59.397Z,19.30
2022-10-26T16:03:27.596Z,19.20
2022-10-26T16:06:01.219Z,19.20
2022-10-26T16:08:30.891Z,19.10
2022-10-26T16:10:58.543Z,19.10
2022-10-26T16:13:26.729Z,19.00
2022-10-26T16:15:54.223Z,19.00
2022-10-26T16:18:21.959Z,18.90
2022-10-26T16:20:49.465Z,18.80
2022-10-26T16:23:16.736Z,18.80
2022-10-26T16:25:46.507Z,18.70
2022-10-26T16:28:18.482Z,18.70
2022-10-26T16:30:46.494Z,18.70
2022-10-26T16:33:14.203Z,18.60
2022-10-26T16:35:41.778Z,18.50
2022-10-26T16:38:09.915Z,18.50
2022-10-26T16:40:37.432Z,18.50
2022-10-26T16:43:04.972Z,18.50
2022-10-26T16:45:32.530Z,18.40
2022-10-26T16:48:00.157Z,18.40
2022-10-26T16:50:27.644Z,18.40
2022-10-26T16:52:55.027Z,18.30
2022-10-26T16:55:24.559Z,18.30
2022-10-26T16:57:52.690Z,18.30
2022-10-26T17:00:21.421Z,18.30
2022-10-26T17:02:48.940Z,18.20
2022-10-26T17:05:16.696Z,18.20
2022-10-26T17:07:46.272Z,18.20
2022-10-26T17:10:13.782Z,18.20
2022-10-26T17:12:41.300Z,18.20
2022-10-26T17:15:09.113Z,18.20
2022-10-26T17:17:36.688Z,18.20
2022-10-26T17:20:04.816Z,18.20
2022-10-26T17:22:32.884Z,18.20
2022-10-26T17:25:00.175Z,18.20
2022-10-26T17:27:27.680Z,18.20
2022-10-26T17:29:55.222Z,18.20
2022-10-26T17:32:22.967Z,18.20
2022-10-26T17:34:50.771Z,18.30
2022-10-26T17:37:18.217Z,18.20
2022-10-26T17:39:45.642Z,18.20
2022-10-26T17:42:13.240Z,18.30
2022-10-26T17:44:40.747Z,18.30
2022-10-26T17:47:09.773Z,18.30
2022-10-26T17:49:37.130Z,18.30
2022-10-26T17:52:06.074Z,18.40
2022-10-26T17:54:33.626Z,18.40
2022-10-26T17:57:01.288Z,18.40
2022-10-26T17:59:28.955Z,18.40
2022-10-26T18:01:56.946Z,18.50
2022-10-26T18:04:24.484Z,18.40
2022-10-26T18:06:51.838Z,18.40
2022-10-26T18:09:19.166Z,18.50
2022-10-26T18:11:47.338Z,18.50
2022-10-26T18:14:16.336Z,18.50
2022-10-26T18:16:43.881Z,18.50
2022-10-26T18:19:11.383Z,18.50
2022-10-26T18:21:38.743Z,18.50
2022-10-26T18:24:07.637Z,18.50
2022-10-26T18:26:35.664Z,18.50
2022-10-26T18:29:04.611Z,18.40
2022-10-26T18:31:32.821Z,18.40
2022-10-26T18:34:05.352Z,18.40
2022-10-26T18:36:33.696Z,18.40
2022-10-26T18:39:01.188Z,18.50
2022-10-26T18:41:29.507Z,18.40
2022-10-26T18:44:01.567Z,18.40
2022-10-26T18:46:31.158Z,18.30
2022-10-26T18:49:00.789Z,18.30
2022-10-26T18:51:33.966Z,18.20
2022-10-26T18:54:02.035Z,18.20
2022-10-26T18:56:29.713Z,18.20
2022-10-26T18:58:58.960Z,18.10
2022-10-26T19:01:32.248Z,18.00
2022-10-26T19:04:02.194Z,18.00
2022-10-26T19:06:32.730Z,17.90
2022-10-26T19:09:00.695Z,17.80
2022-10-26T19:11:29.856Z,17.80
2022-10-26T19:13:57.932Z,17.70
2022-10-26T19:19:16.599Z,17.50
2022-10-26T19:21:48.814Z,17.50
2022-10-26T19:24:18.813Z,17.50
2022-10-26T19:26:47.719Z,17.40
2022-10-26T19:29:16.858Z,17.40
2022-10-26T19:31:45.916Z,17.40
2022-10-26T19:34:15.131Z,17.40
2022-10-26T19:36:45.149Z,17.50
2022-10-26T19:39:16.925Z,17.50
2022-10-26T19:41:46.115Z,17.50
2022-10-26T19:44:14.432Z,17.50
2022-10-26T19:46:43.292Z,17.50
2022-10-26T19:49:12.738Z,17.50
2022-10-26T19:51:40.621Z,17.50
2022-10-26T19:54:07.959Z,17.50
2022-10-26T19:56:36.790Z,17.50
2022-10-26T19:59:04.529Z,17.50
2022-10-26T20:01:32.442Z,17.50
2022-10-26T20:04:02.203Z,17.50
2022-10-26T20:06:30.819Z,17.50
2022-10-26T20:08:58.863Z,17.50
2022-10-26T20:11:26.535Z,17.50
2022-10-26T20:13:55.784Z,17.50
2022-10-26T20:16:23.519Z,17.50
2022-10-26T20:18:51.024Z,17.50
2022-10-26T20:21:18.808Z,17.50
2022-10-26T20:23:46.122Z,17.50
2022-10-26T20:26:19.301Z,17.50
2022-10-26T20:28:50.730Z,17.50
2022-10-26T20:31:18.264Z,17.50
2022-10-26T20:33:48.522Z,17.50
2022-10-26T20:36:15.681Z,17.40
2022-10-26T20:38:43.092Z,17.40
2022-10-26T20:41:13.955Z,17.40
2022-10-26T20:43:42.505Z,17.40
2022-10-26T20:46:23.431Z,17.40
2022-10-26T20:48:52.438Z,17.40
2022-10-26T20:51:35.868Z,17.50
2022-10-26T20:54:30.091Z,17.50
2022-10-26T20:57:02.008Z,17.50
2022-10-26T20:59:38.741Z,17.50
2022-10-26T21:02:11.901Z,17.40
2022-10-26T21:04:39.140Z,17.40
2022-10-26T21:07:06.354Z,17.40
2022-10-26T21:09:36.550Z,17.40
2022-10-26T21:12:04.858Z,17.40
2022-10-26T21:14:36.534Z,17.40
2022-10-26T21:17:03.983Z,17.40
2022-10-26T21:19:31.251Z,17.40
2022-10-26T21:21:58.506Z,17.40
2022-10-26T21:24:25.724Z,17.40
2022-10-26T21:26:52.951Z,17.40
2022-10-26T21:29:20.131Z,17.40
2022-10-26T21:31:47.298Z,17.40
2022-10-26T21:34:14.623Z,17.40
2022-10-26T21:36:41.820Z,17.40
2022-10-26T21:39:09.134Z,17.40
2022-10-26T21:41:37.575Z,17.40
2022-10-26T21:44:09.875Z,17.40
2022-10-26T21:46:49.855Z,17.40
2022-10-26T21:49:17.079Z,17.30
2022-10-26T21:51:44.308Z,17.30
2022-10-26T21:54:11.845Z,17.30
2022-10-26T21:56:39.256Z,17.30
2022-10-26T21:59:07.346Z,17.20
2022-10-26T22:01:34.746Z,17.20
2022-10-26T22:04:02.281Z,17.10
2022-10-26T22:06:29.625Z,17.10
2022-10-26T22:08:57.136Z,17.00
2022-10-26T22:11:25.431Z,17.00
2022-10-26T22:13:53.355Z,17.00
2022-10-26T22:16:29.568Z,16.90
2022-10-26T22:19:01.976Z,16.80
2022-10-26T22:21:34.916Z,16.80
2022-10-26T22:24:02.496Z,16.80
2022-10-26T22:26:31.760Z,16.80
2022-10-26T22:28:59.279Z,16.80
2022-10-26T22:34:07.860Z,16.70
2022-10-26T22:36:36.134Z,16.60
2022-10-26T22:39:03.868Z,16.60
2022-10-26T22:41:31.594Z,16.50
2022-10-26T22:43:58.970Z,16.40
2022-10-26T22:46:28.831Z,16.40
2022-10-26T22:48:58.806Z,16.30
2022-10-26T22:51:29.539Z,16.20
2022-10-26T22:53:59.114Z,16.20
2022-10-26T22:58:59.835Z,16.00
2022-10-26T23:01:31.362Z,16.00
2022-10-26T23:04:00.110Z,15.90
2022-10-26T23:06:29.631Z,15.90
2022-10-26T23:08:57.272Z,15.80
2022-10-26T23:11:26.888Z,15.70
2022-10-26T23:13:56.183Z,15.60
2022-10-26T23:16:23.846Z,15.50
2022-10-26T23:18:53.346Z,15.50
2022-10-26T23:21:22.667Z,15.40
2022-10-26T23:23:50.116Z,15.30
2022-10-26T23:26:20.924Z,15.30
2022-10-26T23:28:49.256Z,15.20
2022-10-26T23:31:22.298Z,15.20
2022-10-26T23:33:51.193Z,15.10
2022-10-26T23:36:19.494Z,15.10
2022-10-26T23:38:47.029Z,15.10
2022-10-26T23:41:14.800Z,15.00
2022-10-26T23:43:42.050Z,15.00
2022-10-26T23:46:09.886Z,14.90
2022-10-26T23:48:37.496Z,14.80
2022-10-26T23:51:04.970Z,14.80
2022-10-26T23:53:32.798Z,14.70
2022-10-26T23:56:00.399Z,14.70
2022-10-26T23:58:27.826Z,14.60
